Time;durP1;ratioP1;P1;durP2;ratioP2;P2;SDS_P1;SDS_P2;PMS_P1;PMS_P2;Temp;Humidity;BMP_temperature;BMP_pressure;BME280_temperature;BME280_humidity;BME280_pressure;Samples;Min_cycle;Max_cycle;Signal;HPM_P1;HPM_P2
2024/01/11 00:02:16;;;;;;;280.52;50.92;;;;;;;-4.64;100.00;98981.22;5004697;28;20088;-58
2024/01/11 00:04:43;;;;;;;274.30;45.60;;;;;;;-4.65;100.00;98989.59;5001908;28;20034;-61
2024/01/11 00:07:09;;;;;;;383.20;262.83;;;;;;;-4.69;100.00;98988.50;5004127;28;20425;-65
2024/01/11 00:09:41;;;;;;;285.30;69.25;;;;;;;-4.69;100.00;99000.31;5001050;28;20033;-61
2024/01/11 00:12:07;;;;;;;235.07;47.60;;;;;;;-4.59;100.00;98988.41;5001926;28;20038;-60
2024/01/11 00:14:33;;;;;;;230.13;96.93;;;;;;;-4.63;100.00;98996.59;5003778;28;20052;-60
2024/01/11 00:16:58;;;;;;;293.85;172.20;;;;;;;-4.58;100.00;98992.72;5004515;28;20118;-60
2024/01/11 00:19:23;;;;;;;341.88;164.45;;;;;;;-4.64;100.00;98992.25;5006207;28;20148;-59
2024/01/11 00:21:49;;;;;;;288.70;123.43;;;;;;;-4.71;100.00;99002.75;5005186;28;20508;-60
2024/01/11 00:24:14;;;;;;;265.30;44.38;;;;;;;-4.79;100.00;99004.69;5000759;28;20036;-61
2024/01/11 00:26:39;;;;;;;329.25;155.18;;;;;;;-4.69;100.00;98997.78;5004068;28;20037;-61
2024/01/11 00:29:05;;;;;;;245.77;119.50;;;;;;;-4.64;100.00;98992.25;5004788;28;20029;-60
2024/01/11 00:31:30;;;;;;;190.45;68.30;;;;;;;-4.76;100.00;98993.88;5001815;28;21133;-60
2024/01/11 00:33:55;;;;;;;217.90;86.50;;;;;;;-4.71;100.00;98987.50;5003068;28;20045;-60
2024/01/11 00:36:21;;;;;;;262.30;53.90;;;;;;;-4.60;100.00;98989.16;5002262;28;20121;-60
2024/01/11 00:38:46;;;;;;;230.23;51.80;;;;;;;-4.84;100.00;98996.75;5004452;28;20639;-58
2024/01/11 00:41:11;;;;;;;221.63;62.42;;;;;;;-4.58;100.00;98995.25;5002568;28;20037;-60
2024/01/11 00:43:37;;;;;;;232.68;67.03;;;;;;;-4.72;100.00;98996.78;5003836;28;20141;-58
2024/01/11 00:46:02;;;;;;;205.82;42.78;;;;;;;-4.79;100.00;98999.63;5003166;28;20045;-59
2024/01/11 00:48:28;;;;;;;302.50;64.05;;;;;;;-4.74;100.00;98999.97;5006893;28;20109;-59
2024/01/11 00:50:53;;;;;;;166.88;46.40;;;;;;;-4.97;100.00;99005.09;5003300;28;20291;-60
2024/01/11 00:53:18;;;;;;;264.35;68.03;;;;;;;-4.78;100.00;99010.66;5002888;28;20242;-59
2024/01/11 00:55:43;;;;;;;264.80;91.80;;;;;;;-4.83;100.00;99010.31;5001059;28;20030;-58
2024/01/11 00:58:09;;;;;;;450.77;304.52;;;;;;;-4.79;100.00;99009.78;5000915;28;20026;-58
2024/01/11 01:00:34;;;;;;;395.17;243.93;;;;;;;-4.88;100.00;99004.91;5000856;28;20966;-57
2024/01/11 01:02:59;;;;;;;246.07;49.28;;;;;;;-4.81;100.00;99000.28;5004485;28;20083;-59
2024/01/11 01:05:25;;;;;;;313.30;89.60;;;;;;;-4.97;100.00;98997.50;4998998;28;20763;-60
2024/01/11 01:07:50;;;;;;;324.42;120.15;;;;;;;-4.85;100.00;98996.66;4999096;28;20037;-61
2024/01/11 01:10:15;;;;;;;354.35;71.38;;;;;;;-4.82;100.00;99001.06;4997508;28;20425;-60
2024/01/11 01:12:40;;;;;;;296.10;90.35;;;;;;;-4.87;100.00;99008.31;4997083;28;20022;-61
2024/01/11 01:15:06;;;;;;;287.52;66.30;;;;;;;-4.88;100.00;99007.47;5001356;28;20074;-61
2024/01/11 01:17:32;;;;;;;350.67;50.60;;;;;;;-4.86;100.00;99002.50;4997337;28;20042;-60
2024/01/11 01:19:57;;;;;;;213.98;45.47;;;;;;;-4.83;100.00;99007.78;4995649;28;20112;-61
2024/01/11 01:22:22;;;;;;;280.85;46.00;;;;;;;-4.80;100.00;99004.63;4995963;28;20239;-59
2024/01/11 01:24:48;;;;;;;262.13;50.42;;;;;;;-4.79;100.00;99006.38;4996627;28;20443;-61
2024/01/11 01:27:13;;;;;;;253.30;44.97;;;;;;;-4.84;100.00;99006.91;4998477;28;20505;-61
2024/01/11 01:29:38;;;;;;;312.23;42.45;;;;;;;-4.91;100.00;99004.69;4997331;28;20305;-58
2024/01/11 01:32:04;;;;;;;289.13;41.65;;;;;;;-4.89;100.00;99007.34;4997846;28;20046;-59
2024/01/11 01:34:30;;;;;;;259.60;42.65;;;;;;;-5.00;100.00;99009.06;4999007;28;20034;-59
2024/01/11 01:36:55;;;;;;;258.83;61.92;;;;;;;-5.00;100.00;99011.63;5003853;28;20627;-59
2024/01/11 01:39:20;;;;;;;299.05;42.58;;;;;;;-4.98;100.00;99017.66;4997379;28;20317;-57
2024/01/11 01:41:46;;;;;;;240.38;40.90;;;;;;;-4.93;100.00;99013.84;5000807;28;20033;-57
2024/01/11 01:44:11;;;;;;;268.27;55.25;;;;;;;-4.94;100.00;99012.06;4997786;28;20665;-59
2024/01/11 01:46:37;;;;;;;309.45;42.20;;;;;;;-4.97;100.00;99014.38;4993615;28;20038;-57
2024/01/11 01:49:03;;;;;;;230.20;53.40;;;;;;;-4.99;100.00;99006.66;4992257;28;20676;-59
2024/01/11 01:51:30;;;;;;;261.90;42.38;;;;;;;-4.96;100.00;99003.47;4994984;28;20105;-57
2024/01/11 01:53:56;;;;;;;267.23;40.30;;;;;;;-5.07;100.00;99010.28;4994721;28;20658;-59
2024/01/11 01:56:22;;;;;;;325.45;58.88;;;;;;;-4.98;100.00;99010.06;4993016;28;20042;-58
2024/01/11 01:58:51;;;;;;;232.82;42.25;;;;;;;-4.90;100.00;99010.66;4997779;28;20416;-59
2024/01/11 02:01:18;;;;;;;272.05;45.25;;;;;;;-4.94;100.00;99012.06;4993262;28;20041;-59
2024/01/11 02:03:46;;;;;;;199.85;39.28;;;;;;;-4.96;100.00;99006.00;4999812;28;20087;-58
2024/01/11 02:06:13;;;;;;;396.70;165.85;;;;;;;-4.90;100.00;99011.50;4993725;28;20595;-58
2024/01/11 02:08:40;;;;;;;262.08;87.93;;;;;;;-5.05;100.00;99005.31;4997175;28;20241;-57
2024/01/11 02:11:05;;;;;;;264.70;49.83;;;;;;;-4.91;100.00;99004.69;4996585;28;20045;-61
2024/01/11 02:13:31;;;;;;;342.08;44.03;;;;;;;-4.90;100.00;99011.50;4996123;28;20258;-60
2024/01/11 02:15:57;;;;;;;191.45;43.30;;;;;;;-4.99;100.00;99001.59;4996750;28;20436;-59
2024/01/11 02:18:22;;;;;;;283.77;44.15;;;;;;;-4.99;100.00;99000.69;4998434;28;20084;-58
2024/01/11 02:20:47;;;;;;;326.77;77.15;;;;;;;-5.12;100.00;98999.75;4997707;28;20634;-58
2024/01/11 02:23:18;;;;;;;233.70;39.60;;;;;;;-5.01;100.00;98997.16;4993511;28;20465;-60
2024/01/11 02:25:43;;;;;;;275.00;64.63;;;;;;;-4.97;100.00;98994.94;4997274;28;20037;-58
2024/01/11 02:28:08;;;;;;;311.10;64.95;;;;;;;-4.82;100.00;98994.34;4997474;28;20026;-56
2024/01/11 02:30:34;;;;;;;294.95;48.17;;;;;;;-4.95;100.00;99001.81;4992231;28;20065;-59
2024/01/11 02:33:01;;;;;;;251.25;45.28;;;;;;;-4.95;100.00;98997.59;4997796;28;20033;-57
2024/01/11 02:35:27;;;;;;;326.35;44.58;;;;;;;-5.03;100.00;99001.22;4995655;28;20124;-58
2024/01/11 02:37:53;;;;;;;326.42;144.93;;;;;;;-5.16;100.00;99001.97;4999899;28;20112;-59
2024/01/11 02:40:19;;;;;;;361.38;175.23;;;;;;;-5.05;100.00;99000.25;4993757;28;20033;-58
2024/01/11 02:42:45;;;;;;;334.45;49.30;;;;;;;-5.23;100.00;98995.56;4996278;28;20109;-58
2024/01/11 02:45:12;;;;;;;263.40;43.95;;;;;;;-5.18;100.00;98994.25;4997863;28;20034;-56
2024/01/11 02:47:38;;;;;;;270.80;47.25;;;;;;;-5.28;100.00;98997.75;4997467;28;20018;-57
2024/01/11 02:50:04;;;;;;;316.70;49.00;;;;;;;-5.32;100.00;98994.88;4997854;28;20049;-56
2024/01/11 02:52:29;;;;;;;288.30;51.83;;;;;;;-5.19;100.00;98995.03;4992506;28;20506;-60
2024/01/11 02:54:54;;;;;;;239.68;42.30;;;;;;;-5.29;100.00;98990.00;4993057;28;20034;-57
2024/01/11 02:57:20;;;;;;;280.90;45.78;;;;;;;-5.25;100.00;98992.00;4994251;28;20056;-58
2024/01/11 02:59:45;;;;;;;325.30;48.60;;;;;;;-5.30;100.00;98988.25;4992822;28;20455;-58
2024/01/11 03:02:10;;;;;;;291.58;42.40;;;;;;;-5.41;100.00;98995.03;4996491;28;20498;-59
2024/01/11 03:04:36;;;;;;;347.42;46.63;;;;;;;-5.43;100.00;98989.84;4993606;28;20067;-57
2024/01/11 03:07:01;;;;;;;214.93;41.20;;;;;;;-5.43;100.00;98986.41;4992025;28;20414;-58
2024/01/11 03:09:26;;;;;;;328.80;57.40;;;;;;;-5.54;100.00;98999.16;4996649;28;20903;-58
2024/01/11 03:11:52;;;;;;;270.40;45.72;;;;;;;-5.53;100.00;98990.78;4996916;28;20345;-58
2024/01/11 03:14:17;;;;;;;279.40;51.83;;;;;;;-5.49;100.00;98989.41;4998689;28;20603;-57
2024/01/11 03:16:42;;;;;;;274.63;42.50;;;;;;;-5.62;100.00;98991.00;4996659;28;20038;-58
2024/01/11 03:19:08;;;;;;;314.05;47.60;;;;;;;-5.63;100.00;98994.31;4995564;28;20431;-59
2024/01/11 03:21:33;;;;;;;286.50;45.17;;;;;;;-5.47;100.00;98990.38;4993269;28;20067;-57
2024/01/11 03:23:59;;;;;;;233.65;41.78;;;;;;;-5.58;100.00;98991.19;4993093;28;20029;-58
2024/01/11 03:26:25;;;;;;;283.92;42.85;;;;;;;-5.57;100.00;98995.53;4989844;28;20557;-57
2024/01/11 03:28:50;;;;;;;220.77;42.17;;;;;;;-5.77;100.00;98999.94;4994410;28;20049;-57
2024/01/11 03:31:15;;;;;;;271.65;44.35;;;;;;;-5.84;100.00;98985.00;4990715;28;20096;-58
2024/01/11 03:33:41;;;;;;;316.35;44.55;;;;;;;-5.91;100.00;98987.06;4994196;28;20592;-59
2024/01/11 03:36:10;;;;;;;297.20;46.67;;;;;;;-5.99;100.00;98984.72;4992798;28;20706;-59
2024/01/11 03:38:36;;;;;;;333.42;46.97;;;;;;;-5.90;100.00;98983.78;4998354;28;20033;-59
2024/01/11 03:41:02;;;;;;;241.35;43.92;;;;;;;-5.89;100.00;98977.06;4995643;28;20041;-60
2024/01/11 03:43:27;;;;;;;285.58;53.13;;;;;;;-5.87;100.00;98988.19;4996980;28;20110;-61
2024/01/11 03:45:53;;;;;;;269.63;40.80;;;;;;;-5.94;100.00;98980.91;4996022;28;20120;-60
2024/01/11 03:48:18;;;;;;;228.18;39.85;;;;;;;-5.93;100.00;98980.13;4993133;28;20023;-60
2024/01/11 03:50:44;;;;;;;264.13;42.90;;;;;;;-5.99;100.00;98972.06;4996215;28;20041;-57
2024/01/11 03:53:09;;;;;;;250.60;41.40;;;;;;;-6.04;100.00;98965.03;4995092;28;20026;-59
2024/01/11 03:55:34;;;;;;;300.90;43.28;;;;;;;-6.05;100.00;98978.41;4992725;28;20278;-58
2024/01/11 03:58:00;;;;;;;255.23;43.63;;;;;;;-5.98;100.00;98974.69;4997037;28;20033;-59
2024/01/11 04:00:25;;;;;;;296.02;44.33;;;;;;;-6.10;100.00;98983.88;4994562;28;20044;-59
2024/01/11 04:02:50;;;;;;;266.10;40.97;;;;;;;-6.01;100.00;98979.53;5009582;28;20470;-60
2024/01/11 04:05:16;;;;;;;283.50;41.22;;;;;;;-6.13;100.00;98971.00;4995234;28;20046;-59
2024/01/11 04:07:41;;;;;;;263.77;42.60;;;;;;;-6.20;100.00;98972.19;4997626;28;20022;-58
2024/01/11 04:10:09;;;;;;;264.05;43.03;;;;;;;-6.21;100.00;98976.34;4996721;28;20493;-58
2024/01/11 04:12:35;;;;;;;596.10;53.38;;;;;;;-6.23;100.00;98977.88;4992040;28;20109;-60
2024/01/11 04:15:01;;;;;;;272.17;43.50;;;;;;;-6.33;100.00;98975.38;4998156;28;20056;-60
2024/01/11 04:17:26;;;;;;;294.75;39.22;;;;;;;-6.36;100.00;98981.06;4997710;28;20496;-60
2024/01/11 04:19:51;;;;;;;247.40;42.22;;;;;;;-6.31;100.00;98984.00;4992752;28;20417;-58
2024/01/11 04:22:16;;;;;;;312.90;56.15;;;;;;;-6.37;100.00;98984.38;4994704;28;20052;-59
2024/01/11 04:24:43;;;;;;;269.38;43.45;;;;;;;-6.35;100.00;98987.91;4993067;28;20087;-59
2024/01/11 04:27:08;;;;;;;260.15;43.00;;;;;;;-6.35;100.00;98989.56;4995723;28;20104;-59
2024/01/11 04:29:33;;;;;;;476.88;49.40;;;;;;;-6.48;100.00;98978.47;4992735;28;20533;-57
2024/01/11 04:31:59;;;;;;;217.25;41.63;;;;;;;-6.64;100.00;98983.94;4993684;28;20057;-58
2024/01/11 04:34:24;;;;;;;253.55;43.70;;;;;;;-6.65;100.00;98988.88;4995834;28;20026;-60
2024/01/11 04:36:49;;;;;;;305.00;46.00;;;;;;;-6.73;100.00;98989.13;4994021;28;20398;-60
2024/01/11 04:39:15;;;;;;;269.77;46.30;;;;;;;-6.80;100.00;98989.38;4996149;28;20037;-60
2024/01/11 04:41:40;;;;;;;316.38;46.20;;;;;;;-6.81;100.00;98995.22;4994991;28;20052;-59
2024/01/11 04:44:06;;;;;;;323.13;46.03;;;;;;;-6.86;100.00;99010.03;4998336;28;20120;-60
2024/01/11 04:46:31;;;;;;;265.00;45.35;;;;;;;-6.97;100.00;99014.22;4995610;28;20041;-59
2024/01/11 04:48:56;;;;;;;226.27;41.80;;;;;;;-6.91;100.00;99012.94;5000480;28;20133;-58
2024/01/11 04:51:22;;;;;;;262.23;43.83;;;;;;;-7.03;100.00;99018.75;4998224;28;20037;-59
2024/01/11 04:53:47;;;;;;;242.57;44.05;;;;;;;-7.13;100.00;99009.50;4996249;28;20033;-59
2024/01/11 04:56:16;;;;;;;335.80;53.33;;;;;;;-7.12;100.00;99013.84;5000208;28;20042;-58
2024/01/11 04:58:43;;;;;;;352.60;48.97;;;;;;;-7.09;100.00;99003.09;4996050;28;20030;-59
2024/01/11 05:01:18;;;;;;;261.65;44.42;;;;;;;-6.97;100.00;99005.72;4999306;28;20038;-60
2024/01/11 05:03:45;;;;;;;269.35;47.25;;;;;;;-6.96;100.00;99005.88;4997352;28;20596;-60
2024/01/11 05:06:18;;;;;;;341.88;46.00;;;;;;;-7.03;100.00;99018.75;4997550;28;20045;-59
2024/01/11 05:08:45;;;;;;;359.48;47.72;;;;;;;-7.14;100.00;99012.81;4995979;28;20017;-58
2024/01/11 05:11:20;;;;;;;328.33;45.72;;;;;;;-7.03;100.00;99010.28;4994993;28;20076;-58
2024/01/11 05:13:47;;;;;;;253.20;42.47;;;;;;;-7.00;100.00;99005.47;4997267;28;20608;-61
2024/01/11 05:16:23;;;;;;;284.98;43.15;;;;;;;-7.12;100.00;99010.41;4997954;28;20333;-60
2024/01/11 05:18:50;;;;;;;198.93;42.50;;;;;;;-7.26;100.00;99015.22;4996128;28;20053;-59
2024/01/11 05:21:16;;;;;;;240.65;44.03;;;;;;;-7.35;100.00;99009.38;4996170;28;20184;-59
2024/01/11 05:23:42;;;;;;;325.67;45.67;;;;;;;-7.42;100.00;99007.09;4993765;28;20029;-60
2024/01/11 05:26:08;;;;;;;294.42;43.47;;;;;;;-7.43;100.00;99013.78;4995551;28;20683;-59
2024/01/11 05:28:33;;;;;;;334.35;41.33;;;;;;;-7.53;100.00;99012.13;4995490;28;20104;-59
2024/01/11 05:30:58;;;;;;;293.83;41.22;;;;;;;-7.51;100.00;99015.66;4995759;28;20041;-59
2024/01/11 05:33:24;;;;;;;215.68;42.75;;;;;;;-7.52;100.00;99018.97;4995836;28;20068;-59
2024/01/11 05:35:49;;;;;;;254.80;41.33;;;;;;;-7.54;100.00;99014.53;4993082;28;20038;-58
2024/01/11 05:38:14;;;;;;;312.70;42.90;;;;;;;-7.65;100.00;99006.91;4996042;28;20129;-60
2024/01/11 05:40:40;;;;;;;298.75;40.97;;;;;;;-7.69;100.00;99011.59;4995695;28;20041;-58
2024/01/11 05:43:06;;;;;;;294.77;41.80;;;;;;;-7.78;100.00;99012.56;4998308;28;20041;-59
2024/01/11 05:45:31;;;;;;;397.05;49.35;;;;;;;-7.80;100.00;99021.66;4996723;28;20541;-58
2024/01/11 05:47:56;;;;;;;243.32;41.60;;;;;;;-7.80;100.00;99014.06;4997785;28;20025;-59
2024/01/11 05:50:22;;;;;;;227.75;37.83;;;;;;;-7.79;100.00;99008.28;4998873;28;20026;-58
2024/01/11 05:52:47;;;;;;;260.40;43.33;;;;;;;-7.75;100.00;99017.00;4995458;28;20334;-58
2024/01/11 05:55:12;;;;;;;259.67;39.47;;;;;;;-7.84;100.00;99027.19;4993331;28;20121;-59
2024/01/11 05:57:38;;;;;;;305.05;42.75;;;;;;;-7.78;100.00;99025.22;4993601;28;20032;-59
2024/01/11 06:00:05;;;;;;;284.63;39.58;;;;;;;-7.81;100.00;99027.47;4995406;28;20521;-58
2024/01/11 06:02:31;;;;;;;248.82;42.88;;;;;;;-7.78;100.00;99030.25;4997855;28;20041;-59
2024/01/11 06:04:56;;;;;;;228.80;38.50;;;;;;;-7.84;100.00;99023.03;4996892;28;20057;-60
2024/01/11 06:07:22;;;;;;;297.20;43.88;;;;;;;-7.89;100.00;99024.28;4994905;28;20144;-59
2024/01/11 06:09:47;;;;;;;239.30;39.35;;;;;;;-7.98;100.00;99033.59;4995446;28;20065;-58
2024/01/11 06:12:13;;;;;;;245.65;43.15;;;;;;;-7.91;100.00;99038.41;4996972;28;20041;-60
2024/01/11 06:14:39;;;;;;;363.52;46.65;;;;;;;-7.97;100.00;99025.25;4996162;28;20168;-60
2024/01/11 06:17:04;;;;;;;216.48;41.42;;;;;;;-7.95;100.00;99027.94;4997280;28;20273;-58
2024/01/11 06:19:29;;;;;;;269.65;41.28;;;;;;;-7.90;100.00;99031.72;4994216;28;20079;-58
2024/01/11 06:21:55;;;;;;;294.08;43.17;;;;;;;-7.95;100.00;99033.84;4995561;28;20030;-60
2024/01/11 06:24:20;;;;;;;224.73;41.78;;;;;;;-8.03;100.00;99028.13;4998402;28;20536;-59
2024/01/11 06:26:45;;;;;;;322.05;43.55;;;;;;;-8.13;100.00;99030.63;4996070;28;20133;-57
2024/01/11 06:29:11;;;;;;;300.92;40.75;;;;;;;-8.24;100.00;99042.31;4999985;28;20037;-58
2024/01/11 06:31:36;;;;;;;290.38;43.58;;;;;;;-8.15;100.00;99045.63;4996498;28;20706;-58
2024/01/11 06:34:01;;;;;;;234.45;39.85;;;;;;;-8.04;100.00;99054.16;4999354;28;20041;-57
2024/01/11 06:36:26;;;;;;;261.92;41.42;;;;;;;-7.93;100.00;99046.59;4996586;28;20492;-59
2024/01/11 06:38:52;;;;;;;246.48;42.40;;;;;;;-8.18;100.00;99059.63;4996706;28;20440;-59
2024/01/11 06:41:17;;;;;;;238.73;40.00;;;;;;;-8.28;100.00;99073.94;4994590;28;20176;-59
2024/01/11 06:43:42;;;;;;;426.88;46.22;;;;;;;-8.35;100.00;99081.75;4993826;28;20065;-59
2024/01/11 06:46:09;;;;;;;327.13;48.22;;;;;;;-8.50;100.00;99086.31;4993633;28;20126;-59
2024/01/11 06:48:35;;;;;;;316.52;46.92;;;;;;;-8.62;100.00;99086.13;4995389;28;20085;-59
2024/01/11 06:51:00;;;;;;;274.73;44.75;;;;;;;-8.60;100.00;99089.69;4994288;28;20195;-59
2024/01/11 06:53:25;;;;;;;223.00;39.72;;;;;;;-8.54;100.00;99090.22;4994688;28;20536;-61
2024/01/11 06:55:52;;;;;;;249.88;46.30;;;;;;;-8.46;100.00;99090.00;4995286;28;20044;-61
2024/01/11 06:58:20;;;;;;;298.05;40.50;;;;;;;-8.45;100.00;99095.19;4997503;28;20121;-60
2024/01/11 07:00:45;;;;;;;357.83;46.95;;;;;;;-8.49;100.00;99093.13;4996882;28;20104;-59
2024/01/11 07:03:11;;;;;;;273.70;44.65;;;;;;;-8.57;100.00;99082.41;4997539;28;20531;-59
2024/01/11 07:05:36;;;;;;;425.98;48.60;;;;;;;-8.40;100.00;99088.91;4994002;28;20033;-58
2024/01/11 07:08:02;;;;;;;245.57;44.30;;;;;;;-8.06;100.00;99091.00;4998521;28;20319;-59
2024/01/11 07:10:27;;;;;;;176.82;39.92;;;;;;;-8.03;100.00;99085.31;4997364;28;20230;-59
2024/01/11 07:12:52;;;;;;;311.73;45.50;;;;;;;-8.11;100.00;99070.41;4996915;28;20025;-60
2024/01/11 07:15:18;;;;;;;266.98;43.58;;;;;;;-8.17;100.00;99079.94;4996327;28;20410;-58
2024/01/11 07:17:43;;;;;;;295.75;42.50;;;;;;;-8.12;100.00;99086.28;4994721;28;20052;-59
2024/01/11 07:20:10;;;;;;;299.20;44.10;;;;;;;-8.07;100.00;99089.22;4994983;28;20489;-60
2024/01/11 07:22:35;;;;;;;277.73;41.40;;;;;;;-8.15;100.00;99092.72;4995693;28;20057;-60
2024/01/11 07:25:00;;;;;;;242.63;40.03;;;;;;;-8.36;100.00;99100.16;4998245;28;20174;-59
2024/01/11 07:27:26;;;;;;;276.48;42.28;;;;;;;-8.19;100.00;99095.72;4993771;28;20033;-60
2024/01/11 07:29:51;;;;;;;218.98;45.78;;;;;;;-8.16;100.00;99088.41;4991786;28;20026;-60
2024/01/11 07:32:16;;;;;;;230.40;40.78;;;;;;;-8.03;100.00;99095.41;4996225;28;20049;-59
2024/01/11 07:34:42;;;;;;;395.50;45.95;;;;;;;-7.96;100.00;99107.84;4992603;28;20033;-60
2024/01/11 07:37:08;;;;;;;218.25;41.35;;;;;;;-7.74;100.00;99105.56;4993141;28;20042;-58
2024/01/11 07:39:34;;;;;;;309.77;41.63;;;;;;;-7.17;100.00;99111.16;4990676;28;20025;-58
2024/01/11 07:41:59;;;;;;;245.57;39.40;;;;;;;-6.62;100.00;99101.38;4992018;28;20033;-60
2024/01/11 07:44:25;;;;;;;272.63;43.25;;;;;;;-6.01;100.00;99126.47;4996898;28;20069;-59
2024/01/11 07:46:50;;;;;;;310.77;42.50;;;;;;;-5.55;100.00;99130.88;4995187;28;20049;-59
2024/01/11 07:49:15;;;;;;;318.23;42.20;;;;;;;-6.43;100.00;99116.44;4997710;28;20133;-59
2024/01/11 07:51:41;;;;;;;333.20;41.97;;;;;;;-6.80;100.00;99119.31;4994534;28;20052;-59
2024/01/11 07:54:06;;;;;;;215.25;36.90;;;;;;;-6.87;100.00;99126.28;4997069;28;20037;-59
2024/01/11 07:56:32;;;;;;;253.32;39.67;;;;;;;-6.98;100.00;99131.31;4992942;28;20255;-60
2024/01/11 07:58:57;;;;;;;200.73;38.63;;;;;;;-6.88;100.00;99125.38;4993938;28;20072;-59
2024/01/11 08:01:23;;;;;;;199.05;36.58;;;;;;;-6.71;100.00;99129.34;4994268;28;20340;-58
2024/01/11 08:03:51;;;;;;;354.25;44.22;;;;;;;-7.14;100.00;99145.94;4993309;28;20031;-60
2024/01/11 08:06:17;;;;;;;280.83;44.03;;;;;;;-6.80;100.00;99142.09;4994677;28;20045;-61
2024/01/11 08:08:43;;;;;;;259.45;39.05;;;;;;;-6.76;100.00;99144.91;4991671;28;20188;-60
2024/01/11 08:11:09;;;;;;;306.70;38.15;;;;;;;-6.48;100.00;99143.00;4990983;28;20081;-58
2024/01/11 08:13:34;;;;;;;228.40;39.38;;;;;;;-6.44;100.00;99142.50;4999178;28;20126;-57
2024/01/11 08:16:03;;;;;;;231.57;40.90;;;;;;;-6.10;100.00;99146.91;4993516;28;20339;-58
2024/01/11 08:18:29;;;;;;;255.63;40.47;;;;;;;-6.28;100.00;99137.06;4998012;28;20048;-58
2024/01/11 08:20:55;;;;;;;213.63;48.10;;;;;;;-6.09;100.00;99142.75;4997140;28;20656;-59
2024/01/11 08:23:20;;;;;;;175.10;35.65;;;;;;;-5.90;100.00;99135.81;5001973;28;20159;-60
2024/01/11 08:25:46;;;;;;;390.80;48.05;;;;;;;-5.73;100.00;99133.75;5000595;28;20039;-61
2024/01/11 08:28:11;;;;;;;256.35;39.33;;;;;;;-5.45;100.00;99128.31;5000521;28;20504;-61
2024/01/11 08:30:36;;;;;;;276.63;40.35;;;;;;;-5.58;100.00;99128.09;4998475;28;20224;-59
2024/01/11 08:33:03;;;;;;;235.70;39.03;;;;;;;-5.39;100.00;99122.81;5000067;28;20681;-60
2024/01/11 08:35:31;;;;;;;196.07;41.38;;;;;;;-5.37;100.00;99122.22;5001700;28;20113;-60
2024/01/11 08:37:57;;;;;;;216.25;41.30;;;;;;;-5.14;100.00;99117.13;4999501;28;20748;-59
2024/01/11 08:40:22;;;;;;;266.77;44.35;;;;;;;-5.00;100.00;99108.03;4994682;28;20770;-59
2024/01/11 08:42:47;;;;;;;309.23;45.10;;;;;;;-4.83;100.00;99114.38;4999378;28;20036;-62
2024/01/11 08:45:17;;;;;;;259.27;39.03;;;;;;;-4.66;100.00;99108.06;5000589;28;20048;-61
2024/01/11 08:47:44;;;;;;;356.50;45.10;;;;;;;-4.57;100.00;99090.97;4998568;28;20514;-61
2024/01/11 08:50:12;;;;;;;234.63;38.58;;;;;;;-4.53;100.00;99088.66;4998622;28;20581;-60
2024/01/11 08:52:39;;;;;;;244.02;37.72;;;;;;;-4.53;100.00;99087.00;4997601;28;20100;-60
2024/01/11 08:55:05;;;;;;;267.83;37.35;;;;;;;-4.39;100.00;99077.84;4997440;28;20026;-59
2024/01/11 08:57:30;;;;;;;246.82;41.25;;;;;;;-4.25;100.00;99075.44;4996086;28;20041;-59
2024/01/11 08:59:55;;;;;;;297.08;37.53;;;;;;;-3.94;100.00;99057.31;4996872;28;20018;-59
2024/01/11 09:02:21;;;;;;;163.93;29.45;;;;;;;-3.96;100.00;99058.88;4995937;28;20045;-60
2024/01/11 09:04:47;;;;;;;215.27;34.83;;;;;;;-4.14;100.00;99066.06;5000334;28;20026;-58
2024/01/11 09:07:12;;;;;;;248.43;37.20;;;;;;;-4.46;100.00;99070.56;4998802;28;20551;-60
2024/01/11 09:09:38;;;;;;;271.98;37.30;;;;;;;-3.92;100.00;99065.94;5000708;28;20057;-59
2024/01/11 09:12:03;;;;;;;190.07;34.88;;;;;;;-3.71;100.00;99071.66;5003061;28;20065;-59
2024/01/11 09:14:29;;;;;;;182.80;36.75;;;;;;;-3.57;100.00;99075.19;4998825;28;20045;-61
2024/01/11 09:16:54;;;;;;;306.02;40.72;;;;;;;-3.45;100.00;99071.75;5000806;28;20034;-61
2024/01/11 09:19:20;;;;;;;180.05;37.78;;;;;;;-3.36;100.00;99063.84;4998797;28;20113;-61
2024/01/11 09:21:45;;;;;;;279.13;37.58;;;;;;;-3.14;100.00;99054.41;4998174;28;20042;-62
2024/01/11 09:24:10;;;;;;;185.48;35.83;;;;;;;-3.01;100.00;99063.75;5001637;28;20046;-62
2024/01/11 09:26:36;;;;;;;192.77;36.97;;;;;;;-3.03;100.00;99080.59;5001869;28;20836;-60
2024/01/11 09:29:02;;;;;;;227.90;39.58;;;;;;;-2.64;100.00;99085.69;5000489;28;20037;-61
2024/01/11 09:31:27;;;;;;;162.25;31.88;;;;;;;-2.64;100.00;99089.91;5001430;28;20037;-61
2024/01/11 09:33:52;;;;;;;234.32;39.05;;;;;;;-2.39;100.00;99094.09;5000243;28;20080;-60
2024/01/11 09:36:18;;;;;;;295.35;37.40;;;;;;;-2.42;100.00;99097.31;5001676;28;20050;-61
2024/01/11 09:38:43;;;;;;;267.92;38.63;;;;;;;-2.16;100.00;99115.13;5001808;28;20061;-61
2024/01/11 09:41:11;;;;;;;186.30;34.08;;;;;;;-2.13;100.00;99122.94;5002422;28;20075;-59
2024/01/11 09:43:38;;;;;;;238.13;36.80;;;;;;;-1.99;100.00;99112.00;5001169;28;20124;-59
2024/01/11 09:46:07;;;;;;;183.25;35.65;;;;;;;-1.77;100.00;99098.09;4998228;28;20042;-60
2024/01/11 09:48:34;;;;;;;179.93;76.00;;;;;;;-1.71;100.00;99101.00;5002957;28;20037;-61
2024/01/11 09:51:03;;;;;;;200.23;38.28;;;;;;;-1.72;100.00;99099.25;5003034;28;20044;-59
2024/01/11 09:53:31;;;;;;;138.07;35.63;;;;;;;-1.45;100.00;99073.69;5001264;28;20065;-60
2024/01/11 09:55:58;;;;;;;256.15;41.03;;;;;;;-1.38;100.00;99054.53;4998959;28;20037;-61
2024/01/11 09:58:24;;;;;;;192.80;35.55;;;;;;;-1.18;100.00;99060.84;5002185;28;20027;-60
2024/01/11 10:00:54;;;;;;;333.17;76.75;;;;;;;-1.59;100.00;99075.38;4998849;28;20100;-61
2024/01/11 10:03:21;;;;;;;253.40;60.70;;;;;;;-2.38;100.00;99073.81;4999607;28;20049;-60
2024/01/11 10:05:49;;;;;;;333.75;75.82;;;;;;;-2.51;100.00;99077.22;4998428;28;20180;-60
2024/01/11 10:08:14;;;;;;;260.55;67.63;;;;;;;-2.63;100.00;99089.16;4998966;28;20029;-59
2024/01/11 10:10:39;;;;;;;250.63;61.20;;;;;;;-2.59;100.00;99083.47;4998930;28;20406;-59
2024/01/11 10:13:05;;;;;;;223.40;59.55;;;;;;;-2.64;100.00;99095.00;5000254;28;20923;-60
2024/01/11 10:15:30;;;;;;;210.60;61.00;;;;;;;-2.57;100.00;99102.28;4999787;28;20034;-61
2024/01/11 10:17:56;;;;;;;365.92;78.30;;;;;;;-2.40;100.00;99103.41;4998816;28;20022;-62
2024/01/11 10:20:23;;;;;;;154.18;56.55;;;;;;;-2.39;100.00;99106.81;4999977;28;20293;-59
2024/01/11 10:22:49;;;;;;;313.30;80.53;;;;;;;-2.17;100.00;99105.69;5002333;28;20039;-60
2024/01/11 10:25:16;;;;;;;285.52;52.25;;;;;;;-2.34;100.00;99102.91;4998385;28;20036;-61
2024/01/11 10:27:43;;;;;;;217.95;54.85;;;;;;;-2.01;100.00;99099.94;5002325;28;20025;-61
2024/01/11 10:30:19;;;;;;;203.30;46.42;;;;;;;-1.96;100.00;99104.53;5002435;28;20052;-60
2024/01/11 10:32:46;;;;;;;212.05;39.10;;;;;;;-1.13;100.00;99091.78;5001314;28;20088;-60
2024/01/11 10:35:12;;;;;;;184.10;33.80;;;;;;;-0.86;100.00;99086.56;5003211;28;20042;-62
2024/01/11 10:37:41;;;;;;;234.90;35.88;;;;;;;-0.63;100.00;99081.94;4998794;28;20474;-60
2024/01/11 10:40:12;;;;;;;183.07;32.75;;;;;;;-0.52;100.00;99077.44;4997399;28;20017;-59
2024/01/11 10:42:51;;;;;;;154.48;32.28;;;;;;;-0.33;100.00;99064.06;4999685;28;20041;-60
2024/01/11 10:45:19;;;;;;;199.75;30.52;;;;;;;-0.31;100.00;99064.16;5000699;28;20029;-62
2024/01/11 10:48:01;;;;;;;182.70;33.45;;;;;;;-0.08;100.00;99064.59;4998069;28;20025;-61
2024/01/11 10:50:30;;;;;;;164.98;32.83;;;;;;;0.14;100.00;99053.00;4997469;28;20040;-62
2024/01/11 10:53:25;;;;;;;268.25;37.90;;;;;;;0.27;100.00;99041.75;4997216;28;20042;-60
2024/01/11 10:55:50;;;;;;;256.95;33.67;;;;;;;0.10;100.00;99050.28;4999333;28;20042;-58
2024/01/11 10:58:17;;;;;;;189.40;33.65;;;;;;;0.35;100.00;99056.75;5004237;28;20106;-59